Terminal Aerodrome Forecast
Issued by NWS

Home | Current Version | Previous Version | Text Only | Print | Product List | Glossary On
Versions: 1 2 3 4 5 6 7 8 9 10 11 12 13 14 15 16 17 18 19 20 21 22 23 24 25 26
000
FTUS41 KBUF 301700
TAFIAG
TAF
KIAG 301732Z 3018/3118 27008KT P6SM BKN035 BKN250
     FM310600 00000KT P6SM BKN025 OVC070
     FM311000 16004KT P6SM VCSH BKN025 OVC050
     FM311600 17005KT 6SM -SHRA BKN025 OVC070=

USA.gov is the U.S. government's official web portal to all federal, state and local government web resources and services.